sensor_id;sensor_type;location;lat;lon;timestamp;pressure;altitude;pressure_sealevel;temperature;humidity
46045;BME280;31781;54.094;13.428;2022-12-24T00:04:06;100687.25;;;0.72;78.87
46045;BME280;31781;54.094;13.428;2022-12-24T00:09:09;100687.91;;;0.71;78.92
46045;BME280;31781;54.094;13.428;2022-12-24T00:14:11;100691.69;;;0.70;78.46
46045;BME280;31781;54.094;13.428;2022-12-24T00:24:40;100698.47;;;0.60;78.46
46045;BME280;31781;54.094;13.428;2022-12-24T00:29:44;100699.44;;;0.58;78.15
46045;BME280;31781;54.094;13.428;2022-12-24T00:34:48;100700.00;;;0.55;77.90
46045;BME280;31781;54.094;13.428;2022-12-24T00:39:56;100696.53;;;0.52;78.11
46045;BME280;31781;54.094;13.428;2022-12-24T00:44:59;100694.97;;;0.49;78.29
46045;BME280;31781;54.094;13.428;2022-12-24T00:55:26;100696.06;;;0.43;78.59
46045;BME280;31781;54.094;13.428;2022-12-24T01:00:29;100703.00;;;0.36;78.54
46045;BME280;31781;54.094;13.428;2022-12-24T01:05:32;100718.50;;;0.32;78.33
46045;BME280;31781;54.094;13.428;2022-12-24T01:10:40;100720.44;;;0.30;78.26
46045;BME280;31781;54.094;13.428;2022-12-24T01:15:43;100729.50;;;0.29;78.50
46045;BME280;31781;54.094;13.428;2022-12-24T01:20:55;100734.97;;;0.28;78.43
46045;BME280;31781;54.094;13.428;2022-12-24T01:26:04;100734.12;;;0.27;78.84
46045;BME280;31781;54.094;13.428;2022-12-24T01:31:11;100730.47;;;0.28;79.05
46045;BME280;31781;54.094;13.428;2022-12-24T01:36:14;100731.31;;;0.29;79.19
46045;BME280;31781;54.094;13.428;2022-12-24T01:41:23;100736.66;;;0.29;79.15
46045;BME280;31781;54.094;13.428;2022-12-24T01:46:28;100749.03;;;0.30;79.40
46045;BME280;31781;54.094;13.428;2022-12-24T01:51:36;100748.22;;;0.29;79.38
46045;BME280;31781;54.094;13.428;2022-12-24T01:56:50;100757.06;;;0.30;79.25
46045;BME280;31781;54.094;13.428;2022-12-24T02:01:54;100761.72;;;0.28;79.34
46045;BME280;31781;54.094;13.428;2022-12-24T02:06:57;100763.56;;;0.27;79.12
46045;BME280;31781;54.094;13.428;2022-12-24T02:12:08;100770.72;;;0.27;79.32
46045;BME280;31781;54.094;13.428;2022-12-24T02:17:17;100766.22;;;0.27;79.57
46045;BME280;31781;54.094;13.428;2022-12-24T02:27:53;100770.75;;;0.36;79.70
46045;BME280;31781;54.094;13.428;2022-12-24T02:33:27;100772.13;;;0.31;79.88
46045;BME280;31781;54.094;13.428;2022-12-24T02:38:37;100777.06;;;0.35;79.85
46045;BME280;31781;54.094;13.428;2022-12-24T02:43:44;100780.59;;;0.36;79.92
46045;BME280;31781;54.094;13.428;2022-12-24T02:48:54;100783.09;;;0.37;79.80
46045;BME280;31781;54.094;13.428;2022-12-24T02:53:58;100790.03;;;0.40;79.82
46045;BME280;31781;54.094;13.428;2022-12-24T03:04:43;100788.88;;;0.42;79.84
46045;BME280;31781;54.094;13.428;2022-12-24T03:15:26;100795.22;;;0.51;79.73
46045;BME280;31781;54.094;13.428;2022-12-24T03:20:34;100803.13;;;0.43;79.72
46045;BME280;31781;54.094;13.428;2022-12-24T03:25:40;100802.41;;;0.41;79.66
46045;BME280;31781;54.094;13.428;2022-12-24T03:30:49;100799.59;;;0.42;79.55
46045;BME280;31781;54.094;13.428;2022-12-24T03:41:17;100812.97;;;0.52;79.71
46045;BME280;31781;54.094;13.428;2022-12-24T03:46:19;100810.16;;;0.44;79.73
46045;BME280;31781;54.094;13.428;2022-12-24T03:51:24;100811.16;;;0.43;79.73
46045;BME280;31781;54.094;13.428;2022-12-24T09:13:23;101132.00;;;1.64;81.94
46045;BME280;31781;54.094;13.428;2022-12-24T09:18:27;101138.63;;;1.70;81.92
46045;BME280;31781;54.094;13.428;2022-12-24T09:23:31;101138.34;;;1.73;82.04
46045;BME280;31781;54.094;13.428;2022-12-24T10:05:35;101168.34;;;2.15;82.29
46045;BME280;31781;54.094;13.428;2022-12-24T10:11:06;101159.88;;;2.19;82.36
46045;BME280;31781;54.094;13.428;2022-12-24T10:16:54;101176.09;;;2.27;82.22
46045;BME280;31781;54.094;13.428;2022-12-24T11:07:25;101205.44;;;2.85;82.04
46045;BME280;31781;54.094;13.428;2022-12-24T11:12:33;101216.47;;;2.91;82.03
46045;BME280;31781;54.094;13.428;2022-12-24T11:17:41;101208.78;;;2.97;81.92
46045;BME280;31781;54.094;13.428;2022-12-24T12:21:56;101236.53;;;3.69;80.98
46045;BME280;31781;54.094;13.428;2022-12-24T12:27:07;101245.81;;;3.75;81.11
46045;BME280;31781;54.094;13.428;2022-12-24T12:32:26;101244.66;;;3.77;80.71
46045;BME280;31781;54.094;13.428;2022-12-24T12:43:54;101248.28;;;3.86;80.93
46045;BME280;31781;54.094;13.428;2022-12-24T13:23:24;101270.66;;;4.04;80.96
46045;BME280;31781;54.094;13.428;2022-12-24T13:28:32;101271.22;;;4.08;80.96
46045;BME280;31781;54.094;13.428;2022-12-24T13:33:53;101273.75;;;4.09;80.81
46045;BME280;31781;54.094;13.428;2022-12-24T14:01:31;101297.84;;;4.28;80.81
46045;BME280;31781;54.094;13.428;2022-12-24T14:06:50;101290.81;;;4.18;80.67
46045;BME280;31781;54.094;13.428;2022-12-24T14:41:29;101337.03;;;3.96;80.32
46045;BME280;31781;54.094;13.428;2022-12-24T15:12:51;101379.34;;;3.85;80.66
46045;BME280;31781;54.094;13.428;2022-12-24T16:31:44;101406.81;;;3.62;81.33
46045;BME280;31781;54.094;13.428;2022-12-24T16:36:47;101411.22;;;3.53;81.67
46045;BME280;31781;54.094;13.428;2022-12-24T16:41:50;101431.88;;;3.53;81.63
46045;BME280;31781;54.094;13.428;2022-12-24T16:46:59;101430.91;;;3.54;81.80
46045;BME280;31781;54.094;13.428;2022-12-24T16:52:02;101424.53;;;3.55;81.74
46045;BME280;31781;54.094;13.428;2022-12-24T16:57:05;101418.44;;;3.53;81.62
46045;BME280;31781;54.094;13.428;2022-12-24T17:02:15;101427.38;;;3.53;81.74
46045;BME280;31781;54.094;13.428;2022-12-24T17:07:20;101438.13;;;3.53;81.80
46045;BME280;31781;54.094;13.428;2022-12-24T17:12:44;101437.41;;;3.61;81.83
46045;BME280;31781;54.094;13.428;2022-12-24T17:17:47;101453.97;;;3.56;82.22
46045;BME280;31781;54.094;13.428;2022-12-24T17:22:50;101457.37;;;3.58;82.32
46045;BME280;31781;54.094;13.428;2022-12-24T17:27:58;101459.47;;;3.64;82.23
46045;BME280;31781;54.094;13.428;2022-12-24T17:33:01;101464.56;;;3.67;82.24
46045;BME280;31781;54.094;13.428;2022-12-24T17:38:11;101454.09;;;3.64;81.94
46045;BME280;31781;54.094;13.428;2022-12-24T17:43:19;101455.94;;;3.64;81.90
46045;BME280;31781;54.094;13.428;2022-12-24T17:48:22;101457.94;;;3.62;82.15
46045;BME280;31781;54.094;13.428;2022-12-24T17:53:25;101462.28;;;3.63;82.04
46045;BME280;31781;54.094;13.428;2022-12-24T17:58:33;101478.31;;;3.64;82.03
46045;BME280;31781;54.094;13.428;2022-12-24T18:03:36;101487.06;;;3.66;82.31
46045;BME280;31781;54.094;13.428;2022-12-24T18:08:40;101483.25;;;3.69;82.00
46045;BME280;31781;54.094;13.428;2022-12-24T18:40:54;101480.41;;;3.70;82.14
46045;BME280;31781;54.094;13.428;2022-12-24T18:46:04;101493.56;;;3.73;82.38
46045;BME280;31781;54.094;13.428;2022-12-24T19:12:02;101508.16;;;3.71;82.36
46045;BME280;31781;54.094;13.428;2022-12-24T19:23:01;101495.81;;;3.78;82.68
46045;BME280;31781;54.094;13.428;2022-12-24T19:28:24;101510.94;;;3.88;82.49
46045;BME280;31781;54.094;13.428;2022-12-24T20:09:12;101559.69;;;3.95;82.68
46045;BME280;31781;54.094;13.428;2022-12-24T20:14:29;101550.59;;;3.96;82.67
46045;BME280;31781;54.094;13.428;2022-12-24T20:25:12;101544.88;;;4.01;82.54
46045;BME280;31781;54.094;13.428;2022-12-24T20:30:30;101545.28;;;4.01;82.85
46045;BME280;31781;54.094;13.428;2022-12-24T20:35:37;101550.12;;;4.00;82.94
46045;BME280;31781;54.094;13.428;2022-12-24T21:07:51;101562.19;;;3.97;83.07
46045;BME280;31781;54.094;13.428;2022-12-24T21:13:16;101555.97;;;4.06;82.68
46045;BME280;31781;54.094;13.428;2022-12-24T21:18:19;101562.63;;;4.02;83.18
46045;BME280;31781;54.094;13.428;2022-12-24T21:23:22;101561.47;;;4.04;83.09
46045;BME280;31781;54.094;13.428;2022-12-24T21:28:31;101556.81;;;4.06;83.16
46045;BME280;31781;54.094;13.428;2022-12-24T21:44:39;101559.97;;;4.11;83.05
46045;BME280;31781;54.094;13.428;2022-12-24T21:49:42;101561.06;;;4.11;83.40
46045;BME280;31781;54.094;13.428;2022-12-24T21:54:44;101564.69;;;4.12;83.24
46045;BME280;31781;54.094;13.428;2022-12-24T22:10:43;101586.00;;;4.20;83.11
46045;BME280;31781;54.094;13.428;2022-12-24T22:15:47;101585.94;;;4.19;83.39
46045;BME280;31781;54.094;13.428;2022-12-24T22:20:51;101587.62;;;4.20;83.39
46045;BME280;31781;54.094;13.428;2022-12-24T22:41:43;101591.16;;;4.22;83.03
46045;BME280;31781;54.094;13.428;2022-12-24T22:46:46;101606.66;;;4.20;83.12
46045;BME280;31781;54.094;13.428;2022-12-24T22:52:11;101613.00;;;4.28;83.06
46045;BME280;31781;54.094;13.428;2022-12-24T22:57:14;101622.50;;;4.23;83.40
46045;BME280;31781;54.094;13.428;2022-12-24T23:07:58;101624.03;;;4.35;83.14
46045;BME280;31781;54.094;13.428;2022-12-24T23:23:59;101649.56;;;4.31;83.29
46045;BME280;31781;54.094;13.428;2022-12-24T23:29:26;101633.53;;;4.39;83.10
46045;BME280;31781;54.094;13.428;2022-12-24T23:34:29;101635.78;;;4.34;83.51
